sensor_id;sensor_type;location;lat;lon;timestamp;pressure;altitude;pressure_sealevel;temperature;humidity
54854;BME280;40747;49.480;8.658;2023-04-30T00:00:44;100683.25;;;11.94;85.02
54854;BME280;40747;49.480;8.658;2023-04-30T00:03:09;100680.84;;;11.87;84.89
54854;BME280;40747;49.480;8.658;2023-04-30T00:05:34;100685.97;;;11.91;84.28
54854;BME280;40747;49.480;8.658;2023-04-30T00:08:00;100687.63;;;11.97;83.80
54854;BME280;40747;49.480;8.658;2023-04-30T00:10:25;100695.44;;;12.00;83.88
54854;BME280;40747;49.480;8.658;2023-04-30T00:12:50;100700.75;;;11.99;83.97
54854;BME280;40747;49.480;8.658;2023-04-30T00:15:16;100696.22;;;12.04;83.54
54854;BME280;40747;49.480;8.658;2023-04-30T00:17:41;100700.53;;;12.06;83.66
54854;BME280;40747;49.480;8.658;2023-04-30T00:20:06;100698.66;;;12.10;83.72
54854;BME280;40747;49.480;8.658;2023-04-30T00:22:32;100689.44;;;11.93;83.69
54854;BME280;40747;49.480;8.658;2023-04-30T00:24:57;100702.59;;;11.95;84.28
54854;BME280;40747;49.480;8.658;2023-04-30T00:27:23;100700.00;;;11.93;84.29
54854;BME280;40747;49.480;8.658;2023-04-30T00:29:48;100687.16;;;11.81;84.05
54854;BME280;40747;49.480;8.658;2023-04-30T00:32:13;100701.88;;;11.90;84.27
54854;BME280;40747;49.480;8.658;2023-04-30T00:34:39;100715.78;;;11.95;84.02
54854;BME280;40747;49.480;8.658;2023-04-30T00:37:04;100703.84;;;12.13;83.10
54854;BME280;40747;49.480;8.658;2023-04-30T00:39:30;100707.56;;;12.06;82.77
54854;BME280;40747;49.480;8.658;2023-04-30T00:41:55;100696.78;;;12.13;82.75
54854;BME280;40747;49.480;8.658;2023-04-30T00:44:20;100710.66;;;12.20;82.72
54854;BME280;40747;49.480;8.658;2023-04-30T00:46:46;100700.28;;;12.14;82.28
54854;BME280;40747;49.480;8.658;2023-04-30T00:49:11;100706.28;;;12.19;82.23
54854;BME280;40747;49.480;8.658;2023-04-30T00:51:39;100707.66;;;12.31;82.07
54854;BME280;40747;49.480;8.658;2023-04-30T00:54:05;100703.53;;;12.22;82.13
54854;BME280;40747;49.480;8.658;2023-04-30T00:56:31;100704.50;;;12.20;82.00
54854;BME280;40747;49.480;8.658;2023-04-30T00:58:57;100701.53;;;12.31;81.60
54854;BME280;40747;49.480;8.658;2023-04-30T01:01:26;100710.94;;;12.39;81.11
54854;BME280;40747;49.480;8.658;2023-04-30T01:03:54;100704.50;;;12.48;81.27
54854;BME280;40747;49.480;8.658;2023-04-30T01:06:20;100705.00;;;12.59;80.39
54854;BME280;40747;49.480;8.658;2023-04-30T01:08:46;100704.44;;;12.50;79.97
54854;BME280;40747;49.480;8.658;2023-04-30T01:11:30;100712.78;;;12.64;80.03
54854;BME280;40747;49.480;8.658;2023-04-30T01:14:24;100709.19;;;12.67;78.76
54854;BME280;40747;49.480;8.658;2023-04-30T01:17:02;100711.63;;;12.73;77.86
54854;BME280;40747;49.480;8.658;2023-04-30T01:19:43;100711.81;;;12.67;77.88
54854;BME280;40747;49.480;8.658;2023-04-30T01:22:30;100715.16;;;12.45;78.08
54854;BME280;40747;49.480;8.658;2023-04-30T01:25:52;100690.34;;;12.49;78.32
54854;BME280;40747;49.480;8.658;2023-04-30T01:28:05;100713.44;;;12.71;77.81
54854;BME280;40747;49.480;8.658;2023-04-30T01:30:33;100705.31;;;12.77;77.43
54854;BME280;40747;49.480;8.658;2023-04-30T01:32:59;100696.53;;;12.50;77.21
54854;BME280;40747;49.480;8.658;2023-04-30T01:35:52;100708.59;;;12.57;78.06
54854;BME280;40747;49.480;8.658;2023-04-30T01:41:30;100695.09;;;12.66;77.20
54854;BME280;40747;49.480;8.658;2023-04-30T01:44:23;100707.16;;;12.75;77.21
54854;BME280;40747;49.480;8.658;2023-04-30T01:47:06;100697.44;;;12.75;77.29
54854;BME280;40747;49.480;8.658;2023-04-30T01:52:22;100704.28;;;12.81;77.22
54854;BME280;40747;49.480;8.658;2023-04-30T01:54:52;100708.25;;;12.68;78.83
54854;BME280;40747;49.480;8.658;2023-04-30T01:57:27;100707.16;;;12.75;78.76
54854;BME280;40747;49.480;8.658;2023-04-30T01:59:53;100706.22;;;12.76;78.55
54854;BME280;40747;49.480;8.658;2023-04-30T02:02:18;100711.06;;;12.63;78.08
54854;BME280;40747;49.480;8.658;2023-04-30T02:04:43;100716.06;;;12.71;78.09
54854;BME280;40747;49.480;8.658;2023-04-30T02:07:09;100717.03;;;12.68;78.19
54854;BME280;40747;49.480;8.658;2023-04-30T02:09:35;100728.38;;;12.72;78.33
54854;BME280;40747;49.480;8.658;2023-04-30T02:12:00;100715.94;;;12.49;77.40
54854;BME280;40747;49.480;8.658;2023-04-30T02:14:27;100714.59;;;12.62;77.35
54854;BME280;40747;49.480;8.658;2023-04-30T02:16:52;100704.59;;;12.72;77.97
54854;BME280;40747;49.480;8.658;2023-04-30T02:19:18;100713.22;;;12.50;77.54
54854;BME280;40747;49.480;8.658;2023-04-30T02:21:43;100711.41;;;12.52;77.82
54854;BME280;40747;49.480;8.658;2023-04-30T02:24:08;100715.69;;;12.56;77.84
54854;BME280;40747;49.480;8.658;2023-04-30T02:26:33;100717.34;;;12.59;77.52
54854;BME280;40747;49.480;8.658;2023-04-30T02:28:59;100709.22;;;12.38;77.07
54854;BME280;40747;49.480;8.658;2023-04-30T02:31:24;100710.44;;;12.55;78.19
54854;BME280;40747;49.480;8.658;2023-04-30T02:33:49;100712.06;;;12.59;78.47
54854;BME280;40747;49.480;8.658;2023-04-30T02:36:14;100713.88;;;12.57;78.30
54854;BME280;40747;49.480;8.658;2023-04-30T02:38:40;100714.53;;;12.65;78.25
54854;BME280;40747;49.480;8.658;2023-04-30T02:41:05;100715.09;;;12.73;77.43
54854;BME280;40747;49.480;8.658;2023-04-30T02:43:30;100712.72;;;12.66;76.88
54854;BME280;40747;49.480;8.658;2023-04-30T02:45:56;100707.34;;;12.69;77.31
54854;BME280;40747;49.480;8.658;2023-04-30T02:48:21;100706.19;;;12.77;77.65
54854;BME280;40747;49.480;8.658;2023-04-30T02:50:47;100709.03;;;12.71;77.71
54854;BME280;40747;49.480;8.658;2023-04-30T02:53:12;100710.97;;;12.66;77.45
54854;BME280;40747;49.480;8.658;2023-04-30T02:55:37;100716.34;;;12.63;77.74
54854;BME280;40747;49.480;8.658;2023-04-30T02:58:02;100716.28;;;12.65;78.04
54854;BME280;40747;49.480;8.658;2023-04-30T03:00:28;100711.81;;;12.67;78.09
54854;BME280;40747;49.480;8.658;2023-04-30T03:02:53;100704.34;;;12.53;78.06
54854;BME280;40747;49.480;8.658;2023-04-30T03:05:18;100710.50;;;12.53;77.85
54854;BME280;40747;49.480;8.658;2023-04-30T03:07:43;100711.88;;;12.65;78.54
54854;BME280;40747;49.480;8.658;2023-04-30T03:10:09;100712.91;;;12.59;77.86
54854;BME280;40747;49.480;8.658;2023-04-30T03:12:35;100715.78;;;12.53;77.70
54854;BME280;40747;49.480;8.658;2023-04-30T03:15:00;100720.38;;;12.46;77.80
54854;BME280;40747;49.480;8.658;2023-04-30T03:17:25;100719.44;;;12.49;78.41
54854;BME280;40747;49.480;8.658;2023-04-30T03:19:50;100716.34;;;12.63;78.42
54854;BME280;40747;49.480;8.658;2023-04-30T03:22:16;100716.06;;;12.71;78.91
54854;BME280;40747;49.480;8.658;2023-04-30T03:24:44;100712.72;;;12.66;78.04
54854;BME280;40747;49.480;8.658;2023-04-30T03:27:09;100713.28;;;12.49;78.62
54854;BME280;40747;49.480;8.658;2023-04-30T03:29:34;100710.41;;;12.56;78.54
54854;BME280;40747;49.480;8.658;2023-04-30T03:32:00;100713.41;;;12.45;78.37
54854;BME280;40747;49.480;8.658;2023-04-30T03:34:25;100712.38;;;12.50;78.56
54854;BME280;40747;49.480;8.658;2023-04-30T03:36:51;100712.00;;;12.34;79.12
54854;BME280;40747;49.480;8.658;2023-04-30T03:39:16;100710.38;;;12.29;80.00
54854;BME280;40747;49.480;8.658;2023-04-30T03:41:41;100711.44;;;12.24;79.89
54854;BME280;40747;49.480;8.658;2023-04-30T03:44:06;100714.88;;;12.26;79.04
54854;BME280;40747;49.480;8.658;2023-04-30T03:46:39;100719.38;;;12.22;79.85
54854;BME280;40747;49.480;8.658;2023-04-30T03:49:04;100709.28;;;12.35;79.65
54854;BME280;40747;49.480;8.658;2023-04-30T03:51:29;100715.63;;;12.58;80.02
54854;BME280;40747;49.480;8.658;2023-04-30T03:53:55;100707.63;;;12.59;78.71
54854;BME280;40747;49.480;8.658;2023-04-30T03:56:20;100710.56;;;12.23;78.94
54854;BME280;40747;49.480;8.658;2023-04-30T03:58:45;100718.47;;;12.23;78.42
54854;BME280;40747;49.480;8.658;2023-04-30T04:01:11;100718.41;;;12.26;78.73
54854;BME280;40747;49.480;8.658;2023-04-30T04:03:36;100722.56;;;12.05;78.77
54854;BME280;40747;49.480;8.658;2023-04-30T04:06:02;100715.16;;;12.17;79.42
54854;BME280;40747;49.480;8.658;2023-04-30T04:08:29;100702.50;;;12.00;78.90
54854;BME280;40747;49.480;8.658;2023-04-30T04:10:54;100712.84;;;12.06;79.46
54854;BME280;40747;49.480;8.658;2023-04-30T04:13:20;100715.31;;;12.12;78.62
54854;BME280;40747;49.480;8.658;2023-04-30T04:15:46;100712.81;;;12.07;78.81
54854;BME280;40747;49.480;8.658;2023-04-30T04:18:11;100723.09;;;11.87;79.31
54854;BME280;40747;49.480;8.658;2023-04-30T04:20:36;100715.00;;;11.91;79.84
54854;BME280;40747;49.480;8.658;2023-04-30T04:23:01;100722.44;;;12.10;79.38
54854;BME280;40747;49.480;8.658;2023-04-30T04:25:27;100716.44;;;12.05;80.37
54854;BME280;40747;49.480;8.658;2023-04-30T04:27:52;100718.72;;;12.16;79.62
54854;BME280;40747;49.480;8.658;2023-04-30T04:30:18;100723.22;;;12.12;79.71
54854;BME280;40747;49.480;8.658;2023-04-30T04:32:43;100731.50;;;12.29;79.61
54854;BME280;40747;49.480;8.658;2023-04-30T04:35:16;100723.34;;;12.37;79.08
54854;BME280;40747;49.480;8.658;2023-04-30T04:37:44;100729.94;;;12.22;78.36
54854;BME280;40747;49.480;8.658;2023-04-30T04:40:10;100730.66;;;12.29;78.54
54854;BME280;40747;49.480;8.658;2023-04-30T04:42:36;100731.06;;;12.43;78.54
54854;BME280;40747;49.480;8.658;2023-04-30T04:45:04;100735.56;;;12.40;78.22
54854;BME280;40747;49.480;8.658;2023-04-30T04:47:30;100740.03;;;12.38;78.58
54854;BME280;40747;49.480;8.658;2023-04-30T04:49:55;100739.06;;;12.42;78.56
54854;BME280;40747;49.480;8.658;2023-04-30T04:52:20;100739.75;;;12.47;78.70
54854;BME280;40747;49.480;8.658;2023-04-30T04:54:46;100732.69;;;12.48;77.76
54854;BME280;40747;49.480;8.658;2023-04-30T04:57:11;100732.22;;;12.35;78.50
54854;BME280;40747;49.480;8.658;2023-04-30T04:59:36;100738.50;;;12.31;78.50
54854;BME280;40747;49.480;8.658;2023-04-30T05:02:02;100732.84;;;12.43;78.08
54854;BME280;40747;49.480;8.658;2023-04-30T05:04:27;100730.50;;;12.60;78.14
54854;BME280;40747;49.480;8.658;2023-04-30T05:06:52;100736.63;;;12.62;77.32
54854;BME280;40747;49.480;8.658;2023-04-30T05:09:18;100730.69;;;12.56;77.11
54854;BME280;40747;49.480;8.658;2023-04-30T05:11:44;100735.53;;;12.68;77.58
54854;BME280;40747;49.480;8.658;2023-04-30T05:14:10;100740.50;;;12.79;78.00
54854;BME280;40747;49.480;8.658;2023-04-30T05:16:35;100739.53;;;12.82;77.53
54854;BME280;40747;49.480;8.658;2023-04-30T05:19:01;100741.22;;;12.84;76.76
54854;BME280;40747;49.480;8.658;2023-04-30T05:21:26;100739.06;;;12.69;76.96
54854;BME280;40747;49.480;8.658;2023-04-30T05:23:54;100741.09;;;12.87;77.41
54854;BME280;40747;49.480;8.658;2023-04-30T05:26:19;100741.50;;;12.48;77.51
54854;BME280;40747;49.480;8.658;2023-04-30T05:28:44;100738.31;;;12.37;77.55
54854;BME280;40747;49.480;8.658;2023-04-30T05:31:10;100741.19;;;12.57;77.12
54854;BME280;40747;49.480;8.658;2023-04-30T05:33:35;100746.03;;;12.71;77.70
54854;BME280;40747;49.480;8.658;2023-04-30T05:36:01;100750.22;;;13.04;76.79
54854;BME280;40747;49.480;8.658;2023-04-30T05:38:26;100749.38;;;13.03;75.89
54854;BME280;40747;49.480;8.658;2023-04-30T05:40:52;100745.84;;;12.77;76.07
54854;BME280;40747;49.480;8.658;2023-04-30T05:43:17;100747.53;;;12.78;76.58
54854;BME280;40747;49.480;8.658;2023-04-30T05:45:42;100748.63;;;12.73;76.35
54854;BME280;40747;49.480;8.658;2023-04-30T05:48:07;100751.28;;;12.44;77.27
54854;BME280;40747;49.480;8.658;2023-04-30T05:50:33;100754.31;;;12.87;77.88
54854;BME280;40747;49.480;8.658;2023-04-30T05:52:59;100747.94;;;13.20;76.49
54854;BME280;40747;49.480;8.658;2023-04-30T05:55:25;100740.09;;;13.17;75.82
54854;BME280;40747;49.480;8.658;2023-04-30T05:57:50;100736.56;;;13.43;75.68
54854;BME280;40747;49.480;8.658;2023-04-30T06:00:15;100740.59;;;13.28;75.35
54854;BME280;40747;49.480;8.658;2023-04-30T06:02:41;100745.06;;;13.26;75.36
54854;BME280;40747;49.480;8.658;2023-04-30T06:05:07;100741.00;;;13.16;75.75
54854;BME280;40747;49.480;8.658;2023-04-30T06:07:32;100742.09;;;13.35;75.82
54854;BME280;40747;49.480;8.658;2023-04-30T06:09:57;100741.19;;;13.62;74.90
54854;BME280;40747;49.480;8.658;2023-04-30T06:12:23;100746.72;;;13.79;74.82
54854;BME280;40747;49.480;8.658;2023-04-30T06:14:48;100745.00;;;13.78;74.54
54854;BME280;40747;49.480;8.658;2023-04-30T06:17:13;100746.88;;;13.74;74.26
54854;BME280;40747;49.480;8.658;2023-04-30T06:19:40;100750.22;;;13.80;74.23
54854;BME280;40747;49.480;8.658;2023-04-30T06:22:05;100744.22;;;13.76;74.51
54854;BME280;40747;49.480;8.658;2023-04-30T06:24:31;100740.75;;;13.74;74.36
54854;BME280;40747;49.480;8.658;2023-04-30T06:26:56;100744.47;;;13.92;75.03
54854;BME280;40747;49.480;8.658;2023-04-30T06:29:21;100747.59;;;14.25;72.89
54854;BME280;40747;49.480;8.658;2023-04-30T06:31:49;100743.09;;;14.05;72.40
54854;BME280;40747;49.480;8.658;2023-04-30T06:34:14;100743.53;;;14.17;71.74
54854;BME280;40747;49.480;8.658;2023-04-30T06:36:40;100744.09;;;14.03;72.18
54854;BME280;40747;49.480;8.658;2023-04-30T06:39:05;100749.84;;;13.90;72.42
54854;BME280;40747;49.480;8.658;2023-04-30T06:41:31;100744.41;;;13.93;73.23
54854;BME280;40747;49.480;8.658;2023-04-30T06:43:56;100752.84;;;13.81;71.66
54854;BME280;40747;49.480;8.658;2023-04-30T06:46:21;100750.41;;;13.99;72.73
54854;BME280;40747;49.480;8.658;2023-04-30T06:48:46;100755.38;;;14.08;71.62
54854;BME280;40747;49.480;8.658;2023-04-30T06:51:12;100760.00;;;14.01;72.37
54854;BME280;40747;49.480;8.658;2023-04-30T06:53:37;100751.56;;;14.37;71.88
54854;BME280;40747;49.480;8.658;2023-04-30T06:56:02;100750.69;;;14.37;70.93
54854;BME280;40747;49.480;8.658;2023-04-30T06:58:28;100746.34;;;14.58;68.84
54854;BME280;40747;49.480;8.658;2023-04-30T07:00:53;100759.75;;;14.77;69.34
54854;BME280;40747;49.480;8.658;2023-04-30T07:03:18;100745.69;;;14.51;69.40
54854;BME280;40747;49.480;8.658;2023-04-30T07:05:44;100750.47;;;14.87;69.33
54854;BME280;40747;49.480;8.658;2023-04-30T07:08:09;100752.88;;;14.94;68.56
54854;BME280;40747;49.480;8.658;2023-04-30T07:10:34;100744.59;;;15.22;68.34
54854;BME280;40747;49.480;8.658;2023-04-30T07:13:00;100753.94;;;15.31;67.96
54854;BME280;40747;49.480;8.658;2023-04-30T07:15:25;100738.72;;;15.55;67.65
54854;BME280;40747;49.480;8.658;2023-04-30T07:17:51;100758.28;;;15.52;65.92
54854;BME280;40747;49.480;8.658;2023-04-30T07:20:16;100752.00;;;15.74;65.86
54854;BME280;40747;49.480;8.658;2023-04-30T07:22:42;100750.28;;;15.94;64.93
54854;BME280;40747;49.480;8.658;2023-04-30T07:25:11;100751.50;;;16.05;65.24
54854;BME280;40747;49.480;8.658;2023-04-30T07:27:37;100745.81;;;16.13;64.09
54854;BME280;40747;49.480;8.658;2023-04-30T07:30:03;100753.22;;;15.87;63.43
54854;BME280;40747;49.480;8.658;2023-04-30T07:32:29;100753.03;;;15.92;65.24
54854;BME280;40747;49.480;8.658;2023-04-30T07:34:54;100748.97;;;15.44;64.67
54854;BME280;40747;49.480;8.658;2023-04-30T07:37:19;100742.13;;;15.38;65.41
54854;BME280;40747;49.480;8.658;2023-04-30T07:39:45;100751.66;;;15.83;65.81
54854;BME280;40747;49.480;8.658;2023-04-30T07:42:11;100748.66;;;16.10;64.34
54854;BME280;40747;49.480;8.658;2023-04-30T07:44:36;100743.28;;;16.48;62.84
54854;BME280;40747;49.480;8.658;2023-04-30T07:47:05;100724.91;;;16.98;62.28
54854;BME280;40747;49.480;8.658;2023-04-30T07:49:30;100730.56;;;16.73;60.99
54854;BME280;40747;49.480;8.658;2023-04-30T07:51:56;100728.38;;;16.27;61.76
54854;BME280;40747;49.480;8.658;2023-04-30T07:54:22;100728.88;;;17.24;64.38
54854;BME280;40747;49.480;8.658;2023-04-30T07:56:47;100729.41;;;17.48;60.15
54854;BME280;40747;49.480;8.658;2023-04-30T07:59:13;100722.84;;;17.88;57.56
54854;BME280;40747;49.480;8.658;2023-04-30T08:01:38;100730.22;;;18.16;57.35
54854;BME280;40747;49.480;8.658;2023-04-30T08:04:03;100733.81;;;18.15;57.50
54854;BME280;40747;49.480;8.658;2023-04-30T08:06:28;100734.69;;;18.15;57.92
54854;BME280;40747;49.480;8.658;2023-04-30T08:08:54;100739.16;;;18.15;57.65
54854;BME280;40747;49.480;8.658;2023-04-30T08:11:19;100734.25;;;18.07;58.83
54854;BME280;40747;49.480;8.658;2023-04-30T08:13:45;100733.38;;;18.07;58.80
54854;BME280;40747;49.480;8.658;2023-04-30T08:16:11;100728.44;;;18.63;58.85
54854;BME280;40747;49.480;8.658;2023-04-30T08:18:36;100732.88;;;18.78;55.21
54854;BME280;40747;49.480;8.658;2023-04-30T08:21:03;100727.38;;;18.19;56.20
54854;BME280;40747;49.480;8.658;2023-04-30T08:23:29;100725.91;;;18.45;56.27
54854;BME280;40747;49.480;8.658;2023-04-30T08:25:54;100735.09;;;18.08;57.41
54854;BME280;40747;49.480;8.658;2023-04-30T08:28:20;100728.56;;;18.29;54.70
54854;BME280;40747;49.480;8.658;2023-04-30T08:30:45;100728.56;;;18.29;54.99
54854;BME280;40747;49.480;8.658;2023-04-30T08:33:10;100715.44;;;17.77;54.18
54854;BME280;40747;49.480;8.658;2023-04-30T08:35:36;100725.75;;;18.63;55.27
54854;BME280;40747;49.480;8.658;2023-04-30T08:38:01;100724.41;;;19.02;52.89
54854;BME280;40747;49.480;8.658;2023-04-30T08:40:27;100719.88;;;19.19;51.42
54854;BME280;40747;49.480;8.658;2023-04-30T08:43:00;100720.06;;;18.23;51.63
54854;BME280;40747;49.480;8.658;2023-04-30T08:45:30;100720.72;;;18.42;53.38
54854;BME280;40747;49.480;8.658;2023-04-30T08:47:56;100718.22;;;18.86;52.43
54854;BME280;40747;49.480;8.658;2023-04-30T08:50:23;100719.59;;;18.46;52.81
54854;BME280;40747;49.480;8.658;2023-04-30T08:52:49;100725.69;;;18.64;53.42
54854;BME280;40747;49.480;8.658;2023-04-30T08:55:14;100722.91;;;19.12;53.38
54854;BME280;40747;49.480;8.658;2023-04-30T08:57:39;100712.81;;;19.32;51.36
54854;BME280;40747;49.480;8.658;2023-04-30T09:00:05;100719.78;;;19.35;52.57
54854;BME280;40747;49.480;8.658;2023-04-30T09:02:32;100722.75;;;19.30;51.97
54854;BME280;40747;49.480;8.658;2023-04-30T09:04:57;100716.84;;;19.54;53.03
54854;BME280;40747;49.480;8.658;2023-04-30T09:07:23;100714.75;;;19.44;49.04
54854;BME280;40747;49.480;8.658;2023-04-30T09:09:52;100716.00;;;19.53;50.27
54854;BME280;40747;49.480;8.658;2023-04-30T09:12:18;100720.50;;;20.23;49.44
54854;BME280;40747;49.480;8.658;2023-04-30T09:15:03;100711.63;;;20.23;44.61
54854;BME280;40747;49.480;8.658;2023-04-30T09:17:30;100714.91;;;20.41;46.23
54854;BME280;40747;49.480;8.658;2023-04-30T09:20:05;100708.03;;;19.80;46.26
54854;BME280;40747;49.480;8.658;2023-04-30T09:22:32;100716.38;;;20.32;47.27
54854;BME280;40747;49.480;8.658;2023-04-30T09:24:57;100713.94;;;20.14;46.26
54854;BME280;40747;49.480;8.658;2023-04-30T09:27:22;100709.13;;;19.63;47.55
54854;BME280;40747;49.480;8.658;2023-04-30T09:29:48;100719.97;;;18.87;50.83
54854;BME280;40747;49.480;8.658;2023-04-30T09:32:14;100716.50;;;18.84;52.71
54854;BME280;40747;49.480;8.658;2023-04-30T09:34:39;100718.84;;;17.63;54.49
54854;BME280;40747;49.480;8.658;2023-04-30T09:37:05;100713.63;;;17.61;54.42
54854;BME280;40747;49.480;8.658;2023-04-30T09:39:32;100714.69;;;17.41;54.97
54854;BME280;40747;49.480;8.658;2023-04-30T09:42:09;100712.19;;;17.38;55.59
54854;BME280;40747;49.480;8.658;2023-04-30T09:44:39;100712.00;;;17.41;55.53
54854;BME280;40747;49.480;8.658;2023-04-30T09:47:18;100715.25;;;17.64;54.12
54854;BME280;40747;49.480;8.658;2023-04-30T09:49:48;100711.19;;;18.06;51.75
54854;BME280;40747;49.480;8.658;2023-04-30T09:52:16;100707.50;;;18.41;51.01
54854;BME280;40747;49.480;8.658;2023-04-30T09:54:43;100704.88;;;18.55;49.64
54854;BME280;40747;49.480;8.658;2023-04-30T09:57:10;100696.41;;;18.63;50.85
54854;BME280;40747;49.480;8.658;2023-04-30T09:59:35;100697.34;;;19.23;50.01
54854;BME280;40747;49.480;8.658;2023-04-30T10:02:04;100697.66;;;19.47;49.97
54854;BME280;40747;49.480;8.658;2023-04-30T10:04:34;100696.81;;;19.90;50.82
54854;BME280;40747;49.480;8.658;2023-04-30T10:07:05;100702.72;;;19.37;48.62
54854;BME280;40747;49.480;8.658;2023-04-30T10:09:39;100707.81;;;19.11;49.57
54854;BME280;40747;49.480;8.658;2023-04-30T10:12:07;100701.06;;;18.29;50.85
54854;BME280;40747;49.480;8.658;2023-04-30T10:14:38;100699.75;;;18.36;51.48
54854;BME280;40747;49.480;8.658;2023-04-30T10:17:12;100698.22;;;18.16;51.68
54854;BME280;40747;49.480;8.658;2023-04-30T10:19:45;100693.13;;;18.43;51.70
54854;BME280;40747;49.480;8.658;2023-04-30T10:22:10;100696.06;;;18.69;52.26
54854;BME280;40747;49.480;8.658;2023-04-30T10:24:36;100696.41;;;19.38;51.96
54854;BME280;40747;49.480;8.658;2023-04-30T10:27:02;100688.81;;;19.90;50.35
54854;BME280;40747;49.480;8.658;2023-04-30T10:29:28;100683.22;;;20.35;48.61
54854;BME280;40747;49.480;8.658;2023-04-30T10:31:53;100671.66;;;20.34;46.66
54854;BME280;40747;49.480;8.658;2023-04-30T10:34:37;100679.00;;;20.03;47.90
54854;BME280;40747;49.480;8.658;2023-04-30T10:40:26;100684.69;;;18.81;49.03
54854;BME280;40747;49.480;8.658;2023-04-30T10:42:52;100679.75;;;18.90;49.12
54854;BME280;40747;49.480;8.658;2023-04-30T10:45:33;100675.22;;;18.45;50.36
54854;BME280;40747;49.480;8.658;2023-04-30T10:48:01;100671.13;;;18.54;50.48
54854;BME280;40747;49.480;8.658;2023-04-30T10:50:28;100665.50;;;18.44;49.82
54854;BME280;40747;49.480;8.658;2023-04-30T10:53:04;100658.31;;;18.14;50.66
54854;BME280;40747;49.480;8.658;2023-04-30T10:55:30;100666.25;;;18.77;50.22
54854;BME280;40747;49.480;8.658;2023-04-30T10:57:56;100667.69;;;19.13;52.05
54854;BME280;40747;49.480;8.658;2023-04-30T11:00:29;100660.88;;;18.32;49.67
54854;BME280;40747;49.480;8.658;2023-04-30T11:02:57;100664.38;;;18.48;50.49
54854;BME280;40747;49.480;8.658;2023-04-30T11:05:38;100657.25;;;18.94;50.14
54854;BME280;40747;49.480;8.658;2023-04-30T11:08:04;100659.56;;;19.00;49.61
54854;BME280;40747;49.480;8.658;2023-04-30T11:10:34;100661.78;;;19.37;50.58
54854;BME280;40747;49.480;8.658;2023-04-30T11:13:04;100648.25;;;19.54;50.11
54854;BME280;40747;49.480;8.658;2023-04-30T11:15:39;100649.16;;;20.24;47.46
54854;BME280;40747;49.480;8.658;2023-04-30T11:18:06;100644.97;;;20.60;47.13
54854;BME280;40747;49.480;8.658;2023-04-30T11:20:31;100643.88;;;20.50;46.97
54854;BME280;40747;49.480;8.658;2023-04-30T11:23:14;100641.81;;;19.86;46.73
54854;BME280;40747;49.480;8.658;2023-04-30T11:25:48;100646.25;;;19.58;47.70
54854;BME280;40747;49.480;8.658;2023-04-30T11:28:20;100636.88;;;19.07;49.13
54854;BME280;40747;49.480;8.658;2023-04-30T11:30:58;100644.03;;;19.36;48.56
54854;BME280;40747;49.480;8.658;2023-04-30T11:33:25;100647.56;;;19.07;49.68
54854;BME280;40747;49.480;8.658;2023-04-30T11:35:52;100642.16;;;18.78;48.97
54854;BME280;40747;49.480;8.658;2023-04-30T11:38:25;100640.38;;;18.48;49.15
54854;BME280;40747;49.480;8.658;2023-04-30T11:40:51;100643.19;;;19.06;50.04
54854;BME280;40747;49.480;8.658;2023-04-30T11:43:21;100639.66;;;18.75;50.12
54854;BME280;40747;49.480;8.658;2023-04-30T11:46:03;100635.84;;;18.34;52.02
54854;BME280;40747;49.480;8.658;2023-04-30T11:48:34;100636.31;;;18.41;51.07
54854;BME280;40747;49.480;8.658;2023-04-30T11:51:04;100634.22;;;18.77;51.94
54854;BME280;40747;49.480;8.658;2023-04-30T11:53:29;100633.16;;;19.10;50.22
54854;BME280;40747;49.480;8.658;2023-04-30T11:55:55;100627.25;;;19.48;48.65
54854;BME280;40747;49.480;8.658;2023-04-30T11:58:20;100617.91;;;18.97;48.49
54854;BME280;40747;49.480;8.658;2023-04-30T12:00:47;100627.56;;;19.14;47.47
54854;BME280;40747;49.480;8.658;2023-04-30T12:03:16;100624.53;;;19.77;49.55
54854;BME280;40747;49.480;8.658;2023-04-30T12:05:41;100616.25;;;19.67;48.91
54854;BME280;40747;49.480;8.658;2023-04-30T12:08:07;100618.25;;;19.63;48.39
54854;BME280;40747;49.480;8.658;2023-04-30T12:10:34;100617.44;;;19.05;48.22
54854;BME280;40747;49.480;8.658;2023-04-30T12:13:00;100614.22;;;19.14;49.76
54854;BME280;40747;49.480;8.658;2023-04-30T12:15:26;100605.91;;;18.60;49.54
54854;BME280;40747;49.480;8.658;2023-04-30T12:17:56;100602.66;;;18.55;50.46
54854;BME280;40747;49.480;8.658;2023-04-30T12:20:24;100597.25;;;18.71;50.59
54854;BME280;40747;49.480;8.658;2023-04-30T12:22:50;100602.88;;;18.36;48.93
54854;BME280;40747;49.480;8.658;2023-04-30T12:25:17;100600.34;;;18.48;49.41
54854;BME280;40747;49.480;8.658;2023-04-30T12:27:51;100603.13;;;19.06;50.20
54854;BME280;40747;49.480;8.658;2023-04-30T12:30:22;100594.19;;;19.07;48.18
54854;BME280;40747;49.480;8.658;2023-04-30T12:32:49;100580.47;;;19.55;48.94
54854;BME280;40747;49.480;8.658;2023-04-30T12:35:16;100583.50;;;19.07;49.84
54854;BME280;40747;49.480;8.658;2023-04-30T12:37:43;100586.41;;;18.29;50.20
54854;BME280;40747;49.480;8.658;2023-04-30T12:40:09;100593.00;;;18.38;49.54
54854;BME280;40747;49.480;8.658;2023-04-30T12:42:35;100587.19;;;18.15;50.04
54854;BME280;40747;49.480;8.658;2023-04-30T12:45:01;100589.38;;;18.08;49.89
54854;BME280;40747;49.480;8.658;2023-04-30T12:47:26;100594.63;;;17.94;49.55
54854;BME280;40747;49.480;8.658;2023-04-30T12:49:52;100582.38;;;17.90;49.93
54854;BME280;40747;49.480;8.658;2023-04-30T12:52:23;100577.16;;;18.65;49.27
54854;BME280;40747;49.480;8.658;2023-04-30T12:54:48;100571.38;;;19.16;48.66
54854;BME280;40747;49.480;8.658;2023-04-30T12:57:14;100569.09;;;19.39;48.64
54854;BME280;40747;49.480;8.658;2023-04-30T12:59:57;100563.47;;;19.00;46.30